Time;durP1;ratioP1;P1;durP2;ratioP2;P2;SDS_P1;SDS_P2;PMS_P1;PMS_P2;Temp;Humidity;BMP_temperature;BMP_pressure;BME280_temperature;BME280_humidity;BME280_pressure;Samples;Min_cycle;Max_cycle;Signal;HPM_P1;HPM_P2
2022/11/04 00:01:21;;;;;;;;;3.75;1.50;;;;;13.23;60.23;99761.31;5079197;28;61308;-42
2022/11/04 00:03:47;;;;;;;;;7.25;3.00;;;;;13.25;59.68;99756.81;5077975;28;61233;-41
2022/11/04 00:06:12;;;;;;;;;3.25;3.00;;;;;13.24;59.64;99749.00;5078463;28;67039;-41
2022/11/04 00:08:37;;;;;;;;;3.00;2.00;;;;;13.21;60.12;99742.16;5078587;27;57265;-42
2022/11/04 00:13:47;;;;;;;;;4.00;1.75;;;;;13.23;59.86;99736.81;5074816;28;45686;-41
2022/11/04 00:18:58;;;;;;;;;1.00;0.50;;;;;13.23;60.32;99724.53;5073964;28;45647;-44
2022/11/04 00:29:37;;;;;;;;;1.50;1.50;;;;;13.22;60.32;99716.72;5078596;27;45393;-43
2022/11/04 00:34:46;;;;;;;;;4.25;1.00;;;;;13.19;60.37;99723.00;5079235;27;45668;-45
2022/11/04 00:37:11;;;;;;;;;2.25;1.00;;;;;13.17;60.29;99716.13;5076919;27;71872;-44
2022/11/04 00:39:37;;;;;;;;;2.25;1.00;;;;;13.17;59.92;99718.75;5077260;28;68059;-43
2022/11/04 00:42:02;;;;;;;;;4.50;0.00;;;;;13.13;60.61;99723.31;5075677;27;71119;-43
2022/11/04 00:44:27;;;;;;;;;5.50;2.00;;;;;13.11;60.22;99723.41;5078658;27;67449;-46
2022/11/04 00:46:53;;;;;;;;;5.00;1.00;;;;;13.11;60.46;99714.69;5074677;27;45493;-45
2022/11/04 00:49:18;;;;;;;;;3.00;1.00;;;;;13.11;60.57;99717.31;5078355;27;45295;-45
2022/11/04 00:51:43;;;;;;;;;5.25;0.00;;;;;13.11;60.24;99715.53;5074847;28;63948;-47
2022/11/04 00:54:09;;;;;;;;;1.00;1.00;;;;;13.11;60.52;99712.91;5076332;27;72515;-46
2022/11/04 00:56:36;;;;;;;;;3.00;1.00;;;;;13.10;60.46;99711.22;5076512;28;66692;-47
2022/11/04 00:59:02;;;;;;;;;3.75;1.00;;;;;13.11;60.58;99705.00;5066580;27;45241;-43
2022/11/04 01:01:27;;;;;;;;;1.00;0.75;;;;;13.14;60.85;99703.16;5074499;28;54232;-45
2022/11/04 01:03:53;;;;;;;;;2.00;0.75;;;;;13.18;60.56;99702.06;5077507;27;72387;-47
2022/11/04 01:06:21;;;;;;;;;3.00;1.00;;;;;13.17;59.88;99685.44;5077103;27;45342;-46
2022/11/04 01:08:47;;;;;;;;;2.25;1.00;;;;;13.16;60.37;99685.56;5079339;28;45405;-43
2022/11/04 01:11:13;;;;;;;;;1.75;1.00;;;;;13.17;60.35;99680.19;5079085;28;45343;-43
2022/11/04 01:13:38;;;;;;;;;4.50;1.00;;;;;13.17;60.16;99674.94;5081857;27;46120;-43
2022/11/04 01:16:06;;;;;;;;;4.00;1.00;;;;;13.18;60.30;99675.81;5079203;27;45329;-45
2022/11/04 01:18:32;;;;;;;;;2.50;1.00;;;;;13.17;60.47;99682.81;5078905;27;45330;-44
2022/11/04 01:21:02;;;;;;;;;2.00;1.25;;;;;13.18;60.47;99683.69;5078490;28;63817;-43
2022/11/04 01:23:28;;;;;;;;;4.50;1.00;;;;;13.17;61.13;99668.84;5078497;27;45344;-43
2022/11/04 01:25:53;;;;;;;;;2.00;1.75;;;;;13.17;60.88;99680.19;5079709;27;62750;-43
2022/11/04 01:28:18;;;;;;;;;2.25;1.25;;;;;13.15;60.75;99682.06;5080259;27;61072;-42
2022/11/04 01:30:43;;;;;;;;;2.00;2.00;;;;;13.16;61.13;99683.75;5078182;28;72708;-43
2022/11/04 01:33:09;;;;;;;;;2.00;2.00;;;;;13.15;60.83;99681.22;5080624;27;74564;-42
2022/11/04 01:35:34;;;;;;;;;3.50;1.50;;;;;13.14;61.51;99679.50;5079701;27;45385;-42
2022/11/04 01:37:59;;;;;;;;;2.00;1.00;;;;;13.10;60.85;99673.56;5078815;27;67069;-43
2022/11/04 01:40:25;;;;;;;;;3.00;1.75;;;;;13.10;61.23;99669.19;5081260;28;68914;-42
2022/11/04 01:42:50;;;;;;;;;3.00;1.50;;;;;13.10;61.47;99653.44;5080231;27;46217;-43
2022/11/04 01:45:18;;;;;;;;;4.00;1.00;;;;;13.13;61.46;99654.19;5080156;28;72121;-42
2022/11/04 01:47:48;;;;;;;;;2.00;0.50;;;;;13.14;61.34;99659.34;5082031;27;45345;-43
2022/11/04 01:50:23;;;;;;;;;3.00;1.25;;;;;13.18;60.85;99665.28;5079790;27;45525;-43
2022/11/04 01:53:03;;;;;;;;;2.75;1.25;;;;;13.15;61.25;99658.41;5080837;27;47089;-44
2022/11/04 01:55:32;;;;;;;;;1.00;0.00;;;;;13.15;61.30;99655.78;5073985;28;45603;-44
2022/11/04 01:58:01;;;;;;;;;3.00;1.50;;;;;13.15;61.17;99650.53;5074450;27;45462;-42
2022/11/04 02:00:26;;;;;;;;;0.00;0.00;;;;;13.14;60.73;99650.63;5066724;27;45469;-44
2022/11/04 02:03:07;;;;;;;;;1.00;0.00;;;;;13.13;60.72;99643.69;5064888;28;50643;-43
2022/11/04 02:05:33;;;;;;;;;3.50;1.00;;;;;13.09;60.61;99645.63;5073866;27;45336;-41
2022/11/04 02:08:02;;;;;;;;;3.50;1.00;;;;;13.11;61.05;99647.22;5080392;28;45411;-42
2022/11/04 02:10:29;;;;;;;;;4.50;1.00;;;;;13.10;60.80;99645.56;5080129;27;45295;-43
2022/11/04 02:12:56;;;;;;;;;4.25;1.00;;;;;13.11;60.81;99649.00;5077241;27;46186;-45
2022/11/04 02:15:55;;;;;;;;;1.50;0.75;;;;;13.10;60.61;99661.31;5093787;27;45738;-44
2022/11/04 02:18:33;;;;;;;;;0.25;0.00;;;;;13.10;60.74;99658.69;5072265;27;45320;-42
2022/11/04 02:21:12;;;;;;;;;1.25;1.00;;;;;13.14;60.91;99650.63;5081617;28;45215;-44
2022/11/04 02:24:15;;;;;;;;;2.00;1.00;;;;;13.15;60.83;99631.31;5079074;28;45535;-42
2022/11/04 02:27:05;;;;;;;;;2.75;0.00;;;;;13.14;60.39;99635.72;5080881;27;45709;-42
2022/11/04 02:29:45;;;;;;;;;4.00;1.00;;;;;13.13;60.35;99641.06;5072536;28;45539;-42
2022/11/04 02:32:31;;;;;;;;;3.00;1.50;;;;;13.11;60.77;99639.34;5077753;27;45315;-42
2022/11/04 02:35:33;;;;;;;;;2.00;1.00;;;;;13.10;60.32;99647.31;5079690;27;45287;-41
2022/11/04 02:38:10;;;;;;;;;2.50;0.75;;;;;13.07;60.89;99648.34;5080361;27;45249;-42
2022/11/04 02:40:40;;;;;;;;;3.50;0.50;;;;;13.08;60.50;99655.28;5071064;27;45376;-44
2022/11/04 02:43:11;;;;;;;;;2.00;0.50;;;;;13.09;60.44;99645.63;5079687;27;45601;-46
2022/11/04 02:45:47;;;;;;;;;2.00;0.75;;;;;13.05;60.25;99639.69;5081203;27;45361;-44
2022/11/04 02:48:27;;;;;;;;;1.00;1.00;;;;;13.05;60.79;99641.44;5064441;28;45385;-45
2022/11/04 02:51:04;;;;;;;;;2.50;1.00;;;;;13.07;60.45;99639.63;5079569;27;45299;-47
2022/11/04 02:53:42;;;;;;;;;3.50;0.75;;;;;13.08;60.76;99625.53;5078985;27;45217;-44
2022/11/04 02:56:08;;;;;;;;;4.00;0.25;;;;;13.09;60.41;99633.34;5080953;27;46128;-42
2022/11/04 02:58:39;;;;;;;;;7.75;1.00;;;;;13.10;60.46;99621.03;5069606;27;45406;-43
2022/11/04 03:01:06;;;;;;;;;2.00;1.00;;;;;13.10;60.52;99627.16;5083180;27;45319;-45
2022/11/04 03:03:37;;;;;;;;;2.00;0.75;;;;;13.10;60.86;99616.66;5075290;27;45430;-44
2022/11/04 03:06:04;;;;;;;;;1.00;0.50;;;;;13.13;60.41;99617.41;5076490;28;46311;-42
2022/11/04 03:08:37;;;;;;;;;0.50;0.00;;;;;13.13;60.54;99618.25;5079569;27;46286;-45
2022/11/04 03:11:09;;;;;;;;;4.25;0.00;;;;;13.17;60.41;99624.19;5079596;28;45402;-45
2022/11/04 03:14:02;;;;;;;;;1.00;1.00;;;;;13.18;60.92;99612.75;5078956;27;45419;-43
2022/11/04 03:16:33;;;;;;;;;1.00;0.25;;;;;13.20;60.62;99618.75;5085375;27;46134;-44
2022/11/04 03:19:25;;;;;;;;;1.00;0.50;;;;;13.21;60.78;99608.19;5076752;27;45298;-44
2022/11/04 03:21:58;;;;;;;;;2.50;1.00;;;;;13.21;60.43;99608.19;5072731;27;45453;-45
2022/11/04 03:24:24;;;;;;;;;1.75;1.75;;;;;13.19;60.43;99604.78;5079379;28;45468;-46
2022/11/04 03:26:55;;;;;;;;;1.25;0.00;;;;;13.16;60.50;99602.31;5078339;27;64408;-47
2022/11/04 03:29:36;;;;;;;;;3.00;1.00;;;;;13.17;60.74;99600.53;5080660;27;45285;-45
2022/11/04 03:32:20;;;;;;;;;1.00;0.25;;;;;13.21;60.57;99605.53;5077921;28;45400;-43
2022/11/04 03:34:46;;;;;;;;;0.50;0.50;;;;;13.23;60.69;99598.41;5075544;27;45344;-46
2022/11/04 03:37:11;;;;;;;;;2.00;0.25;;;;;13.23;60.19;99597.59;5103682;27;72396;-44
2022/11/04 03:39:37;;;;;;;;;2.00;1.00;;;;;13.24;60.37;99596.63;5076273;27;45297;-48
2022/11/04 03:42:18;;;;;;;;;2.75;1.00;;;;;13.25;60.19;99593.91;5080473;28;45413;-42
2022/11/04 03:44:55;;;;;;;;;1.00;1.00;;;;;13.23;60.41;99595.78;5061309;28;45334;-42
2022/11/04 03:47:23;;;;;;;;;2.25;1.00;;;;;13.24;60.40;99589.63;5078949;27;45459;-42
2022/11/04 03:49:50;;;;;;;;;2.50;0.25;;;;;13.28;60.25;99585.03;5078016;27;45279;-43
2022/11/04 03:52:16;;;;;;;;;3.25;1.00;;;;;13.33;60.28;99588.25;5077765;27;45324;-43
2022/11/04 03:54:42;;;;;;;;;0.00;0.00;;;;;13.35;60.07;99582.91;5075969;28;48720;-47
2022/11/04 03:57:16;;;;;;;;;3.00;0.75;;;;;13.36;60.27;99576.75;5079195;27;66570;-44
2022/11/04 04:00:10;;;;;;;;;1.75;0.00;;;;;13.35;60.01;99588.16;5068712;28;45310;-45
2022/11/04 04:03:07;;;;;;;;;0.50;0.00;;;;;13.35;60.37;99585.53;5068776;27;45452;-45
2022/11/04 04:05:38;;;;;;;;;0.75;0.00;;;;;13.37;59.94;99583.66;5078630;27;45638;-42
2022/11/04 04:08:21;;;;;;;;;1.00;0.75;;;;;13.35;59.73;99599.56;5083322;27;46956;-43
2022/11/04 04:11:02;;;;;;;;;4.50;0.00;;;;;13.35;59.80;99607.44;5078433;28;45361;-42
2022/11/04 04:13:38;;;;;;;;;1.75;0.00;;;;;13.34;59.70;99603.09;5073585;28;45795;-44
2022/11/04 04:16:18;;;;;;;;;2.25;0.00;;;;;13.32;59.73;99606.75;5083690;27;45335;-44
2022/11/04 04:18:48;;;;;;;;;2.00;0.25;;;;;13.31;60.29;99603.25;5078061;28;46139;-46
2022/11/04 04:21:18;;;;;;;;;3.75;1.00;;;;;13.33;59.62;99606.66;5079688;27;45398;-45
2022/11/04 04:29:16;;;;;;;;;1.50;0.50;;;;;13.33;59.88;99616.31;5070867;28;45370;-47
2022/11/04 04:31:48;;;;;;;;;2.00;1.00;;;;;13.30;60.07;99618.16;5076709;28;71159;-49
2022/11/04 04:34:24;;;;;;;;;2.00;0.25;;;;;13.30;59.79;99614.69;5079197;27;45265;-44
2022/11/04 04:36:56;;;;;;;;;4.75;0.50;;;;;13.30;59.84;99615.53;5075003;28;45243;-45
2022/11/04 04:47:30;;;;;;;;;1.75;1.00;;;;;13.27;60.08;99613.06;5077577;27;45298;-43
2022/11/04 04:49:57;;;;;;;;;0.00;0.00;;;;;13.27;59.60;99612.22;5077589;27;46075;-46
2022/11/04 04:52:26;;;;;;;;;4.50;0.50;;;;;13.26;59.96;99613.16;5076976;27;45844;-44
2022/11/04 04:54:51;;;;;;;;;2.00;0.00;;;;;13.27;59.99;99617.47;5077241;28;45457;-44
2022/11/04 04:57:16;;;;;;;;;1.50;0.50;;;;;13.27;59.51;99617.47;5079108;27;60691;-42
2022/11/04 04:59:42;;;;;;;;;1.00;0.00;;;;;13.24;59.76;99623.78;5072141;28;45375;-45
2022/11/04 05:02:07;;;;;;;;;1.00;1.00;;;;;13.22;59.95;99617.72;5081366;27;62900;-43
2022/11/04 05:04:32;;;;;;;;;3.00;0.00;;;;;13.25;59.61;99625.44;5082496;27;45287;-45
2022/11/04 05:06:58;;;;;;;;;2.00;0.00;;;;;13.25;59.29;99629.88;5083434;27;65839;-42
2022/11/04 05:09:23;;;;;;;;;0.00;0.00;;;;;13.26;59.75;99623.66;5084226;27;71261;-43
2022/11/04 05:11:48;;;;;;;;;2.75;0.00;;;;;13.25;59.62;99621.97;5080389;28;73159;-48
2022/11/04 05:14:14;;;;;;;;;0.00;0.00;;;;;13.24;59.66;99623.78;5082122;27;45211;-45
2022/11/04 05:16:39;;;;;;;;;1.00;0.00;;;;;13.26;59.65;99621.03;5077026;28;68335;-44
2022/11/04 05:19:04;;;;;;;;;0.00;0.00;;;;;13.24;59.62;99626.41;5078781;28;71112;-46
2022/11/04 05:21:30;;;;;;;;;3.00;1.00;;;;;13.20;59.28;99624.84;5075710;28;66397;-42
2022/11/04 05:23:55;;;;;;;;;1.00;1.00;;;;;13.18;59.42;99628.50;5081710;28;45370;-48
2022/11/04 05:26:20;;;;;;;;;1.00;0.00;;;;;13.17;59.32;99617.13;5080910;27;57279;-45
2022/11/04 05:28:46;;;;;;;;;0.50;0.00;;;;;13.18;59.47;99631.16;5081165;28;46118;-42
2022/11/04 05:31:11;;;;;;;;;1.00;0.00;;;;;13.18;59.58;99625.88;5080296;27;70270;-44
2022/11/04 05:33:37;;;;;;;;;1.75;0.00;;;;;13.16;59.44;99625.97;5080898;27;45290;-43
2022/11/04 05:36:09;;;;;;;;;1.75;0.25;;;;;13.15;59.79;99634.78;5080266;27;45267;-42
2022/11/04 05:38:35;;;;;;;;;1.25;1.25;;;;;13.15;59.65;99634.78;5077596;27;47657;-43
2022/11/04 05:41:00;;;;;;;;;0.00;0.00;;;;;13.15;59.54;99628.69;5082158;27;45225;-43
2022/11/04 05:43:26;;;;;;;;;3.00;0.00;;;;;13.14;59.25;99629.59;5082186;27;45505;-43
2022/11/04 05:45:51;;;;;;;;;1.00;0.00;;;;;13.13;59.65;99628.75;5080974;27;45392;-45
2022/11/04 05:48:17;;;;;;;;;3.75;0.00;;;;;13.13;59.38;99626.13;5080937;27;68600;-43
2022/11/04 05:50:42;;;;;;;;;1.50;0.00;;;;;13.14;59.45;99633.09;5081317;27;60558;-46
2022/11/04 05:53:07;;;;;;;;;0.00;0.00;;;;;13.17;59.51;99635.53;5081383;27;45530;-43
2022/11/04 05:55:33;;;;;;;;;0.00;0.00;;;;;13.18;59.45;99639.03;5084072;27;45500;-43
2022/11/04 05:57:58;;;;;;;;;1.00;0.00;;;;;13.18;59.69;99650.38;5078512;27;73594;-44
2022/11/04 06:00:25;;;;;;;;;1.00;1.00;;;;;13.13;59.68;99649.78;5064925;28;45781;-47
2022/11/04 06:02:51;;;;;;;;;0.50;0.00;;;;;13.10;59.74;99656.06;5101838;27;45351;-43
2022/11/04 06:05:16;;;;;;;;;0.75;0.00;;;;;13.11;59.43;99659.53;5080525;27;45311;-42
2022/11/04 06:07:41;;;;;;;;;1.25;0.00;;;;;13.13;59.74;99656.81;5064087;28;47097;-41
2022/11/04 06:10:07;;;;;;;;;0.75;0.50;;;;;13.15;59.36;99661.03;5063059;27;58047;-42
2022/11/04 06:12:32;;;;;;;;;3.00;1.00;;;;;13.16;59.29;99662.75;5067012;28;45260;-44
2022/11/04 06:14:58;;;;;;;;;3.50;0.00;;;;;13.16;59.37;99668.00;5067861;28;63850;-45
2022/11/04 06:17:23;;;;;;;;;0.00;0.00;;;;;13.17;59.60;99667.06;5081304;27;46307;-43
2022/11/04 06:19:48;;;;;;;;;2.00;0.00;;;;;13.18;59.42;99674.00;5081024;27;46237;-46
2022/11/04 06:22:16;;;;;;;;;2.00;0.00;;;;;13.19;59.76;99673.09;5078446;28;59105;-41
2022/11/04 06:24:42;;;;;;;;;0.00;0.00;;;;;13.20;59.60;99679.19;5096469;27;45613;-43
2022/11/04 06:27:08;;;;;;;;;0.00;0.00;;;;;13.19;59.07;99686.22;5077478;27;45343;-43
2022/11/04 06:29:38;;;;;;;;;2.25;1.00;;;;;13.17;59.26;99682.81;5074255;28;45687;-42
2022/11/04 06:32:04;;;;;;;;;2.00;0.00;;;;;13.16;59.52;99683.75;5081536;27;45507;-47
2022/11/04 06:34:30;;;;;;;;;2.00;0.00;;;;;13.17;59.25;99677.56;5081281;27;45216;-42
2022/11/04 06:36:55;;;;;;;;;1.00;0.00;;;;;13.15;59.52;99679.44;5080010;27;70467;-46
2022/11/04 06:39:20;;;;;;;;;1.00;0.25;;;;;13.17;59.13;99674.09;5078391;27;70682;-44
2022/11/04 06:41:46;;;;;;;;;1.00;0.75;;;;;13.16;59.43;99673.25;5079397;27;45299;-42
2022/11/04 06:44:11;;;;;;;;;0.00;0.00;;;;;13.20;59.61;99684.44;5058805;28;72765;-44
2022/11/04 06:46:39;;;;;;;;;1.00;0.25;;;;;13.21;59.18;99679.09;5077898;27;69736;-42
2022/11/04 06:49:06;;;;;;;;;2.00;1.00;;;;;13.24;59.39;99680.69;5078968;27;45861;-45
2022/11/04 06:51:31;;;;;;;;;2.00;1.50;;;;;13.26;59.36;99684.97;5076414;28;45404;-45
2022/11/04 06:53:57;;;;;;;;;0.00;0.00;;;;;13.26;59.45;99690.22;5078396;27;45513;-41
2022/11/04 06:56:22;;;;;;;;;2.50;0.00;;;;;13.26;59.13;99694.59;5076553;27;46097;-43
2022/11/04 06:58:49;;;;;;;;;0.50;0.00;;;;;13.25;58.89;99698.19;5068541;27;45248;-46
2022/11/04 07:01:16;;;;;;;;;0.75;0.00;;;;;13.25;58.92;99699.00;5080308;28;45413;-48
2022/11/04 07:03:41;;;;;;;;;3.00;1.25;;;;;13.25;59.15;99701.66;5080623;27;45471;-47
2022/11/04 07:06:07;;;;;;;;;2.00;0.50;;;;;13.25;59.37;99704.28;5077021;28;74305;-45
2022/11/04 07:08:33;;;;;;;;;1.00;0.00;;;;;13.23;59.39;99703.50;5078892;27;45612;-43
2022/11/04 07:10:58;;;;;;;;;2.00;1.00;;;;;13.26;59.17;99720.88;5078863;27;52155;-47
2022/11/04 07:13:23;;;;;;;;;2.25;0.50;;;;;13.25;58.79;99708.69;5079803;27;69932;-45
2022/11/04 07:15:49;;;;;;;;;2.00;0.50;;;;;13.23;58.81;99713.19;5078403;27;75178;-46
2022/11/04 07:18:14;;;;;;;;;0.50;0.50;;;;;13.25;59.15;99721.81;5076204;27;66223;-46
2022/11/04 07:20:40;;;;;;;;;0.25;0.00;;;;;13.25;59.11;99729.69;5075154;28;68622;-42
2022/11/04 07:23:05;;;;;;;;;2.25;0.75;;;;;13.23;59.33;99721.91;5080505;27;45422;-43
2022/11/04 07:25:30;;;;;;;;;2.25;0.00;;;;;13.28;59.30;99733.00;5077574;27;45311;-44
2022/11/04 07:27:56;;;;;;;;;0.00;0.00;;;;;13.28;59.30;99740.91;5080061;27;45366;-46
2022/11/04 07:30:21;;;;;;;;;2.00;0.00;;;;;13.29;58.92;99742.56;5078536;27;45427;-43
2022/11/04 07:32:47;;;;;;;;;1.50;1.00;;;;;13.28;58.85;99746.16;5080288;27;45505;-43
2022/11/04 07:35:12;;;;;;;;;1.00;1.00;;;;;13.30;58.94;99744.28;5077813;28;67701;-41
2022/11/04 07:37:38;;;;;;;;;3.00;1.00;;;;;13.32;58.90;99760.00;5077567;27;55913;-43
2022/11/04 07:40:04;;;;;;;;;3.50;1.00;;;;;13.31;59.27;99755.66;5077019;27;69402;-41
2022/11/04 07:42:30;;;;;;;;;1.50;0.00;;;;;13.31;58.82;99763.53;5076911;27;45493;-47
2022/11/04 07:44:55;;;;;;;;;2.75;1.00;;;;;13.32;59.15;99765.25;5077039;27;67807;-42
2022/11/04 07:47:21;;;;;;;;;1.00;1.00;;;;;13.34;59.03;99765.19;5076926;27;67382;-44
2022/11/04 07:49:46;;;;;;;;;1.00;0.00;;;;;13.37;58.73;99772.88;5079904;28;45229;-44
2022/11/04 07:52:12;;;;;;;;;3.00;1.25;;;;;13.38;58.73;99772.78;5075037;27;45471;-44
2022/11/04 07:54:37;;;;;;;;;0.00;0.00;;;;;13.38;58.52;99780.69;5076148;27;58944;-42
2022/11/04 07:57:02;;;;;;;;;0.00;0.00;;;;;13.34;58.68;99788.84;5079774;27;59238;-42
2022/11/04 07:59:28;;;;;;;;;4.00;1.00;;;;;13.28;59.03;99782.09;5078283;27;45314;-42
2022/11/04 08:01:53;;;;;;;;;1.00;1.00;;;;;13.29;58.39;99796.91;5070709;28;64622;-42
2022/11/04 08:04:19;;;;;;;;;3.00;1.00;;;;;13.27;58.52;99806.66;5075481;28;45391;-42
2022/11/04 08:06:44;;;;;;;;;4.00;0.00;;;;;13.24;58.40;99805.06;5080105;27;45265;-42
2022/11/04 08:09:10;;;;;;;;;0.00;0.00;;;;;13.21;58.55;99807.84;5078487;27;46059;-41
2022/11/04 08:11:35;;;;;;;;;2.00;0.00;;;;;13.19;58.65;99814.97;5077584;27;63030;-41
2022/11/04 08:14:03;;;;;;;;;0.25;0.25;;;;;13.19;58.42;99819.34;5077406;27;45493;-43
2022/11/04 08:16:28;;;;;;;;;1.25;0.00;;;;;13.18;58.67;99815.88;5080135;28;45216;-46
2022/11/04 08:18:54;;;;;;;;;2.00;0.25;;;;;13.21;58.80;99826.22;5079101;27;69750;-46
2022/11/04 08:21:20;;;;;;;;;4.00;1.00;;;;;13.26;58.57;99825.97;5079624;28;45271;-41
2022/11/04 08:23:46;;;;;;;;;5.50;1.00;;;;;13.31;58.81;99823.97;5082727;27;47023;-41
2022/11/04 08:26:14;;;;;;;;;3.50;1.25;;;;;13.37;58.45;99831.56;5077080;27;45281;-41
2022/11/04 08:28:39;;;;;;;;;1.00;1.00;;;;;13.40;58.64;99836.66;5069196;28;45484;-42
2022/11/04 08:31:08;;;;;;;;;1.00;0.25;;;;;13.44;58.27;99839.97;5081440;27;51871;-41
2022/11/04 08:33:35;;;;;;;;;2.00;0.00;;;;;13.48;58.55;99847.59;5082104;28;45303;-41
2022/11/04 08:36:18;;;;;;;;;2.25;1.00;;;;;13.50;58.10;99844.03;5083795;27;45755;-42
2022/11/04 08:38:44;;;;;;;;;1.75;1.00;;;;;13.50;58.44;99842.25;5084056;27;45379;-41
2022/11/04 08:41:10;;;;;;;;;0.75;0.75;;;;;13.53;57.99;99852.63;5099052;27;45779;-41
2022/11/04 08:43:36;;;;;;;;;3.75;1.00;;;;;13.54;57.98;99843.78;5082356;28;46317;-42
2022/11/04 08:46:03;;;;;;;;;0.75;0.25;;;;;13.56;57.71;99859.47;5081826;27;45396;-41
2022/11/04 08:48:28;;;;;;;;;1.00;1.00;;;;;13.59;57.83;99864.56;5082852;27;45431;-42
2022/11/04 08:50:57;;;;;;;;;4.25;1.50;;;;;13.59;57.70;99872.47;5086680;27;45365;-42
2022/11/04 08:53:23;;;;;;;;;1.00;1.00;;;;;13.57;57.80;99875.16;5081102;27;46075;-41
2022/11/04 08:55:48;;;;;;;;;3.75;1.00;;;;;13.61;57.88;99883.75;5080725;27;45436;-45
2022/11/04 08:58:14;;;;;;;;;3.00;1.00;;;;;13.62;57.71;99890.72;5076172;27;52863;-42
2022/11/04 09:00:39;;;;;;;;;2.50;2.00;;;;;13.64;57.90;99894.94;5069495;28;45231;-43
2022/11/04 09:03:04;;;;;;;;;4.00;1.75;;;;;13.66;57.63;99902.75;5079367;28;45380;-42
2022/11/04 09:05:30;;;;;;;;;1.75;1.00;;;;;13.69;56.77;99902.59;5082549;27;49899;-41
2022/11/04 09:07:55;;;;;;;;;4.00;1.00;;;;;13.71;57.44;99911.25;5081254;28;45340;-42
2022/11/04 09:10:21;;;;;;;;;2.50;1.00;;;;;13.72;57.66;99905.03;5081480;28;45657;-41
2022/11/04 09:12:46;;;;;;;;;2.00;1.00;;;;;13.73;57.00;99906.75;5082114;27;46036;-42
2022/11/04 09:15:12;;;;;;;;;5.00;1.00;;;;;13.76;57.39;99911.84;5078992;27;61827;-42
2022/11/04 09:17:37;;;;;;;;;1.00;1.00;;;;;13.79;57.43;99918.72;5077389;28;45367;-47
2022/11/04 09:20:04;;;;;;;;;2.50;0.50;;;;;13.81;57.42;99920.34;5081097;27;45593;-43
2022/11/04 09:22:30;;;;;;;;;3.25;0.50;;;;;13.83;57.13;99925.53;5082365;27;46172;-43
2022/11/04 09:24:56;;;;;;;;;3.00;0.00;;;;;13.83;56.48;99928.16;5089475;27;45308;-42
2022/11/04 09:27:21;;;;;;;;;3.00;2.25;;;;;13.80;56.87;99928.31;5065647;28;45416;-41
2022/11/04 09:29:47;;;;;;;;;4.00;1.00;;;;;13.80;56.97;99933.56;5082367;27;45592;-42
2022/11/04 09:32:12;;;;;;;;;0.00;0.00;;;;;13.80;56.77;99939.69;5081288;28;46156;-43
2022/11/04 09:34:37;;;;;;;;;2.00;1.00;;;;;13.81;56.87;99943.16;5076749;27;70763;-41
2022/11/04 09:37:03;;;;;;;;;1.00;1.00;;;;;13.81;56.95;99945.78;5082149;28;45462;-41
2022/11/04 09:39:28;;;;;;;;;1.00;1.00;;;;;13.85;56.96;99955.22;5081019;27;54153;-44
2022/11/04 09:42:06;;;;;;;;;1.25;1.25;;;;;13.86;57.18;99955.16;5080953;27;45355;-45
2022/11/04 09:44:47;;;;;;;;;5.00;1.00;;;;;13.90;57.09;99957.59;5080806;27;45320;-42
2022/11/04 09:47:13;;;;;;;;;3.25;1.75;;;;;13.93;56.41;99967.97;5073214;27;45249;-44
2022/11/04 09:49:41;;;;;;;;;2.00;2.00;;;;;13.92;56.67;99975.00;5080385;27;45402;-44
2022/11/04 09:52:46;;;;;;;;;5.00;1.00;;;;;13.91;56.56;99977.72;5080145;27;47160;-45
2022/11/04 09:55:19;;;;;;;;;1.00;1.00;;;;;13.88;56.63;99978.72;5043748;28;45333;-45
2022/11/04 09:57:50;;;;;;;;;3.50;1.75;;;;;13.91;56.33;99990.88;5037808;28;46173;-44
2022/11/04 10:00:16;;;;;;;;;2.00;1.00;;;;;13.92;56.39;99997.84;5042639;28;45582;-42
2022/11/04 10:03:11;;;;;;;;;1.00;1.00;;;;;13.93;56.33;100003.00;5076564;27;46227;-44
2022/11/04 10:05:52;;;;;;;;;0.50;0.50;;;;;13.96;55.75;100009.91;5081119;27;45708;-44
2022/11/04 10:08:27;;;;;;;;;1.75;1.00;;;;;13.97;55.64;100016.84;5055550;28;45375;-45
2022/11/04 10:11:00;;;;;;;;;1.00;1.00;;;;;13.97;55.42;100017.72;5078495;28;45580;-45
2022/11/04 10:14:07;;;;;;;;;3.75;1.75;;;;;13.96;55.52;100023.03;5079369;27;48250;-45
2022/11/04 10:17:08;;;;;;;;;4.00;1.00;;;;;13.96;55.39;100031.78;5076151;27;45795;-46
2022/11/04 10:19:42;;;;;;;;;1.00;1.00;;;;;13.94;55.08;100036.28;5080416;28;45330;-44
2022/11/04 10:22:34;;;;;;;;;0.00;0.00;;;;;13.92;55.08;100042.56;5080117;27;45383;-44
2022/11/04 10:25:14;;;;;;;;;3.25;1.50;;;;;13.90;55.24;100047.03;5077604;28;47085;-43
2022/11/04 10:27:43;;;;;;;;;4.25;1.50;;;;;13.89;55.28;100055.84;5076570;27;45698;-44
2022/11/04 10:30:18;;;;;;;;;1.75;1.00;;;;;13.89;55.74;100066.38;5080164;27;45401;-43
2022/11/04 10:33:21;;;;;;;;;5.00;2.50;;;;;13.90;55.36;100066.31;5077990;28;45521;-44
2022/11/04 10:35:50;;;;;;;;;2.00;1.75;;;;;13.96;55.55;100070.41;5071699;28;46738;-42
2022/11/04 10:38:19;;;;;;;;;1.00;1.00;;;;;14.01;55.64;100078.91;5081551;27;45828;-42
2022/11/04 10:40:47;;;;;;;;;0.50;0.50;;;;;14.01;55.27;100079.75;5080417;28;45451;-42
2022/11/04 10:43:18;;;;;;;;;4.00;1.00;;;;;14.01;54.95;100095.53;5080583;27;45526;-43
2022/11/04 10:45:59;;;;;;;;;1.00;0.75;;;;;13.99;54.33;100102.66;5081249;27;45261;-43
2022/11/04 10:48:31;;;;;;;;;4.25;3.00;;;;;13.95;54.50;100102.88;5080863;28;45446;-46
2022/11/04 10:50:58;;;;;;;;;2.00;1.00;;;;;13.95;54.71;100116.03;5077027;27;45315;-44
2022/11/04 10:53:29;;;;;;;;;3.25;1.50;;;;;13.91;54.58;100110.06;5083863;27;45451;-45
2022/11/04 10:56:00;;;;;;;;;3.00;1.00;;;;;13.90;54.94;100120.66;5074624;27;45391;-44
2022/11/04 10:58:35;;;;;;;;;3.75;1.25;;;;;13.88;55.22;100114.63;5070656;28;45861;-45
2022/11/04 11:01:22;;;;;;;;;1.00;1.00;;;;;13.88;54.71;100122.53;5065790;27;45457;-45
2022/11/04 11:03:47;;;;;;;;;1.50;1.25;;;;;13.86;54.85;100128.75;5080680;28;45318;-46
2022/11/04 11:06:25;;;;;;;;;4.00;1.25;;;;;13.86;54.61;100131.38;5078852;27;46027;-44
2022/11/04 11:08:51;;;;;;;;;2.25;1.25;;;;;13.83;55.19;100128.88;5081150;27;45316;-47
2022/11/04 11:11:34;;;;;;;;;3.50;3.50;;;;;13.81;54.61;100128.13;5080104;28;45487;-43
2022/11/04 11:13:59;;;;;;;;;3.00;2.50;;;;;13.83;54.90;100128.03;5079845;28;45716;-44
2022/11/04 11:16:26;;;;;;;;;9.50;5.50;;;;;13.85;54.69;100140.16;5074718;27;68788;-45
2022/11/04 11:19:13;;;;;;;;;12.50;9.75;;;;;13.88;55.24;100140.94;5094667;27;46000;-44
2022/11/04 11:21:44;;;;;;;;;12.25;6.50;;;;;13.90;55.18;100142.59;5078985;27;45442;-44
2022/11/04 11:24:33;;;;;;;;;6.50;4.00;;;;;13.92;54.71;100145.97;5078479;28;45379;-43
2022/11/04 11:27:11;;;;;;;;;2.00;2.00;;;;;13.94;54.45;100144.13;5078663;27;47100;-43
2022/11/04 11:29:41;;;;;;;;;3.25;2.75;;;;;13.96;54.80;100149.31;5060677;28;45487;-43
2022/11/04 11:32:32;;;;;;;;;1.00;1.00;;;;;13.98;54.29;100153.56;5075387;28;45427;-44
2022/11/04 11:35:00;;;;;;;;;1.00;1.00;;;;;14.01;54.40;100158.66;5074086;28;45378;-43
2022/11/04 11:37:29;;;;;;;;;14.50;10.75;;;;;14.07;54.79;100161.91;5070709;27;48037;-43
2022/11/04 11:39:56;;;;;;;;;7.25;6.75;;;;;14.12;54.88;100158.13;5073825;28;45257;-42
2022/11/04 11:42:22;;;;;;;;;4.00;2.00;;;;;14.18;53.93;100163.09;5099948;27;45258;-42
2022/11/04 11:44:56;;;;;;;;;3.00;2.00;;;;;14.23;53.65;100166.31;5079830;27;45336;-45
2022/11/04 11:47:24;;;;;;;;;5.00;5.00;;;;;14.28;53.26;100167.88;5078387;28;47849;-42
2022/11/04 11:50:16;;;;;;;;;2.00;0.00;;;;;14.30;52.52;100168.63;5077075;28;45891;-44
2022/11/04 11:52:43;;;;;;;;;5.75;4.25;;;;;14.29;52.83;100173.06;5066053;28;45651;-42
2022/11/04 11:55:15;;;;;;;;;2.75;1.75;;;;;14.30;53.46;100189.69;5075611;28;45227;-44
2022/11/04 11:57:55;;;;;;;;;7.00;6.25;;;;;14.32;53.55;100190.47;5071868;27;46108;-43
2022/11/04 12:00:27;;;;;;;;;8.50;3.75;;;;;14.30;53.97;100198.44;5073475;28;45803;-42
2022/11/04 12:03:20;;;;;;;;;5.25;4.00;;;;;14.30;54.36;100206.31;5076552;28;45276;-44
2022/11/04 12:06:02;;;;;;;;;2.50;2.00;;;;;14.29;54.85;100217.81;5076923;28;45603;-44
2022/11/04 12:08:58;;;;;;;;;5.00;3.00;;;;;14.26;54.93;100223.22;5075637;27;45310;-44
2022/11/04 12:11:33;;;;;;;;;5.50;4.75;;;;;14.24;55.45;100225.91;5077647;28;45909;-43
2022/11/04 12:14:10;;;;;;;;;6.50;3.25;;;;;14.24;55.83;100230.34;5078191;27;45426;-43
2022/11/04 12:17:23;;;;;;;;;1.00;1.00;;;;;14.24;55.17;100241.72;5072644;28;45323;-43